createdAt,value
2019-06-27T00:00:19.875Z,2.25
2019-06-27T00:02:45.991Z,2.27
2019-06-27T00:05:12.189Z,2.00
2019-06-27T00:07:38.389Z,1.98
2019-06-27T00:10:05.315Z,1.90
2019-06-27T00:12:32.542Z,2.08
2019-06-27T00:14:58.559Z,2.07
2019-06-27T00:17:24.667Z,2.00
2019-06-27T00:19:50.857Z,1.77
2019-06-27T00:22:17.065Z,1.55
2019-06-27T00:24:43.247Z,1.57
2019-06-27T00:27:09.619Z,1.65
2019-06-27T00:29:35.663Z,1.60
2019-06-27T00:32:02.038Z,2.02
2019-06-27T00:34:28.194Z,1.90
2019-06-27T00:36:54.368Z,2.00
2019-06-27T00:39:20.382Z,1.80
2019-06-27T00:41:46.517Z,1.70
2019-06-27T00:44:12.580Z,1.80
2019-06-27T00:46:38.636Z,1.57
2019-06-27T00:49:04.661Z,1.60
2019-06-27T00:51:30.732Z,1.70
2019-06-27T00:53:56.745Z,1.70
2019-06-27T00:56:22.918Z,1.70
2019-06-27T00:58:48.971Z,1.80
2019-06-27T01:01:15.082Z,1.57
2019-06-27T01:03:41.118Z,1.75
2019-06-27T01:06:07.172Z,1.70
2019-06-27T01:08:33.183Z,1.90
2019-06-27T01:10:59.231Z,1.70
2019-06-27T01:13:25.356Z,1.60
2019-06-27T01:15:51.457Z,1.40
2019-06-27T01:18:17.576Z,1.65
2019-06-27T01:20:43.848Z,1.85
2019-06-27T01:23:10.399Z,1.47
2019-06-27T01:25:37.541Z,1.63
2019-06-27T01:28:03.717Z,2.00
2019-06-27T01:30:29.789Z,1.85
2019-06-27T01:32:55.904Z,1.80
2019-06-27T01:35:21.911Z,1.90
2019-06-27T01:37:48.037Z,1.60
2019-06-27T01:40:14.256Z,1.70
2019-06-27T01:42:40.539Z,1.70
2019-06-27T01:45:06.851Z,1.60
2019-06-27T01:47:35.044Z,1.72
2019-06-27T01:50:01.338Z,1.98
2019-06-27T01:52:27.850Z,1.90
2019-06-27T01:54:54.071Z,1.87
2019-06-27T01:57:20.225Z,1.87
2019-06-27T01:59:46.408Z,1.90
2019-06-27T02:02:13.730Z,1.85
2019-06-27T02:04:39.793Z,2.30
2019-06-27T02:07:05.959Z,2.15
2019-06-27T02:09:33.547Z,1.90
2019-06-27T02:11:59.951Z,2.00
2019-06-27T02:14:26.058Z,1.98
2019-06-27T02:16:52.104Z,1.90
2019-06-27T02:19:18.288Z,2.17
2019-06-27T02:21:45.562Z,2.35
2019-06-27T02:24:11.578Z,2.00
2019-06-27T02:26:37.778Z,2.40
2019-06-27T02:29:03.948Z,2.40
2019-06-27T02:31:30.253Z,2.20
2019-06-27T02:33:56.266Z,2.43
2019-06-27T02:36:22.312Z,2.10
2019-06-27T02:38:48.347Z,2.40
2019-06-27T02:41:14.504Z,2.30
2019-06-27T02:43:40.588Z,2.27
2019-06-27T02:46:06.727Z,2.30
2019-06-27T02:48:32.791Z,2.50
2019-06-27T02:50:58.978Z,2.40
2019-06-27T02:53:24.994Z,2.30
2019-06-27T02:55:51.040Z,2.30
2019-06-27T02:58:29.857Z,2.30
2019-06-27T03:00:45.025Z,2.22
2019-06-27T03:03:11.264Z,2.50
2019-06-27T03:05:37.572Z,2.40
2019-06-27T03:08:04.637Z,2.30
2019-06-27T03:10:31.681Z,2.50
2019-06-27T03:12:57.912Z,2.50
2019-06-27T03:15:23.923Z,2.70
2019-06-27T03:17:50.592Z,2.43
2019-06-27T03:20:16.727Z,2.57
2019-06-27T03:22:43.138Z,2.77
2019-06-27T03:25:09.341Z,2.73
2019-06-27T03:27:35.492Z,2.67
2019-06-27T03:30:03.009Z,2.83
2019-06-27T03:32:29.176Z,2.83
2019-06-27T03:34:55.637Z,3.00
2019-06-27T03:37:21.852Z,2.90
2019-06-27T03:39:48.109Z,2.90
2019-06-27T03:42:14.340Z,3.17
2019-06-27T03:44:40.341Z,3.40
2019-06-27T03:47:06.484Z,3.60
2019-06-27T03:49:32.539Z,3.47
2019-06-27T03:51:58.883Z,3.73
2019-06-27T03:54:24.963Z,4.00
2019-06-27T03:56:51.258Z,3.90
2019-06-27T03:59:17.381Z,4.10
2019-06-27T04:01:43.433Z,4.00
2019-06-27T04:04:09.450Z,3.60
2019-06-27T04:06:35.707Z,3.70
2019-06-27T04:09:02.161Z,3.40
2019-06-27T04:11:28.775Z,3.27
2019-06-27T04:13:54.961Z,3.13
2019-06-27T04:16:21.078Z,3.10
2019-06-27T04:18:47.327Z,2.80
2019-06-27T04:21:13.430Z,3.35
2019-06-27T04:23:39.483Z,2.70
2019-06-27T04:26:05.677Z,3.15
2019-06-27T04:28:31.732Z,2.67
2019-06-27T04:30:57.938Z,3.12
2019-06-27T04:33:24.328Z,2.77
2019-06-27T04:35:50.373Z,3.22
2019-06-27T04:38:16.438Z,3.00
2019-06-27T04:40:42.565Z,3.17
2019-06-27T04:43:08.625Z,3.17
2019-06-27T04:45:34.723Z,3.02
2019-06-27T04:48:00.955Z,3.10
2019-06-27T04:50:27.211Z,2.70
2019-06-27T04:53:00.198Z,3.00
2019-06-27T04:55:27.393Z,2.90
2019-06-27T04:57:53.530Z,3.17
2019-06-27T05:00:28.402Z,2.70
2019-06-27T05:02:55.167Z,2.75
2019-06-27T05:05:22.236Z,3.17
2019-06-27T05:07:48.336Z,2.27
2019-06-27T05:10:14.456Z,2.70
2019-06-27T05:12:40.499Z,2.75
2019-06-27T05:15:06.540Z,3.05
2019-06-27T05:17:33.958Z,3.25
2019-06-27T05:20:03.035Z,3.12
2019-06-27T05:22:28.178Z,3.20
2019-06-27T05:24:54.217Z,3.27
2019-06-27T05:27:20.417Z,2.95
2019-06-27T05:29:46.577Z,3.02
2019-06-27T05:32:12.776Z,3.20
2019-06-27T05:34:38.826Z,2.98
2019-06-27T05:37:04.880Z,3.00
2019-06-27T05:39:30.929Z,3.35
2019-06-27T05:41:57.651Z,2.80
2019-06-27T05:44:23.699Z,3.00
2019-06-27T05:46:49.719Z,3.10
2019-06-27T05:49:15.874Z,2.90
2019-06-27T05:51:41.928Z,3.10
2019-06-27T05:54:07.996Z,3.52
2019-06-27T05:56:34.006Z,3.80
2019-06-27T05:59:00.123Z,2.92
2019-06-27T06:01:26.194Z,2.95
2019-06-27T06:03:52.250Z,2.90
2019-06-27T06:06:18.256Z,3.35
2019-06-27T06:08:44.330Z,2.80
2019-06-27T06:11:10.350Z,2.87
2019-06-27T06:13:36.524Z,3.00
2019-06-27T06:16:02.637Z,3.50
2019-06-27T06:18:28.693Z,3.40
2019-06-27T06:20:54.816Z,2.90
2019-06-27T06:23:20.827Z,3.27
2019-06-27T06:25:46.974Z,3.55
2019-06-27T06:28:13.029Z,3.60
2019-06-27T06:30:44.222Z,4.03
2019-06-27T06:33:07.728Z,3.72
2019-06-27T06:35:33.874Z,3.72
2019-06-27T06:37:59.885Z,3.50
2019-06-27T06:40:26.080Z,4.05
2019-06-27T06:42:56.121Z,4.62
2019-06-27T06:45:20.367Z,4.72
2019-06-27T06:47:47.591Z,4.10
2019-06-27T06:50:14.037Z,4.28
2019-06-27T06:52:40.358Z,4.70
2019-06-27T06:55:06.709Z,5.33
2019-06-27T06:57:32.839Z,4.78
2019-06-27T06:59:58.975Z,4.08
2019-06-27T07:02:25.001Z,4.50
2019-06-27T07:04:51.363Z,5.17
2019-06-27T07:07:17.460Z,5.45
2019-06-27T07:09:43.622Z,4.72
2019-06-27T07:12:09.634Z,4.40
2019-06-27T07:14:35.691Z,4.72
2019-06-27T07:17:01.735Z,4.83
2019-06-27T07:19:28.804Z,5.00
2019-06-27T07:21:54.833Z,4.17
2019-06-27T07:24:20.895Z,4.72
2019-06-27T07:26:46.937Z,5.40
2019-06-27T07:29:12.963Z,5.40
2019-06-27T07:31:39.053Z,5.50
2019-06-27T07:34:05.335Z,5.60
2019-06-27T07:36:31.421Z,5.25
2019-06-27T07:38:57.515Z,4.45
2019-06-27T07:41:23.515Z,5.40
2019-06-27T07:43:49.536Z,5.00
2019-06-27T07:46:25.190Z,5.45
2019-06-27T07:48:43.565Z,4.78
2019-06-27T07:51:10.345Z,5.60
2019-06-27T07:53:36.826Z,4.72
2019-06-27T07:56:03.052Z,5.10
2019-06-27T07:58:29.113Z,4.85
2019-06-27T08:00:55.527Z,4.67
2019-06-27T08:03:21.597Z,5.05
2019-06-27T08:05:47.737Z,5.05
2019-06-27T08:08:14.969Z,4.90
2019-06-27T08:10:40.985Z,5.03
2019-06-27T08:13:07.043Z,4.35
2019-06-27T08:15:33.188Z,5.08
2019-06-27T08:18:00.334Z,5.00
2019-06-27T08:20:26.701Z,5.58
2019-06-27T08:22:53.135Z,5.03
2019-06-27T08:25:19.443Z,4.40
2019-06-27T08:27:45.606Z,4.80
2019-06-27T08:30:12.026Z,4.33
2019-06-27T08:32:38.074Z,5.05
2019-06-27T08:35:05.485Z,5.33
2019-06-27T08:37:32.552Z,4.80
2019-06-27T08:39:58.729Z,4.53
2019-06-27T08:42:24.739Z,4.45
2019-06-27T08:44:50.783Z,4.50
2019-06-27T08:47:16.989Z,4.70
2019-06-27T08:49:43.204Z,4.90
2019-06-27T08:52:09.253Z,4.65
2019-06-27T08:54:35.312Z,4.30
2019-06-27T08:57:01.409Z,4.30
2019-06-27T08:59:27.422Z,4.00
2019-06-27T09:02:07.287Z,3.87
2019-06-27T09:04:21.403Z,3.52
2019-06-27T09:06:48.639Z,3.80
2019-06-27T09:09:14.713Z,3.75
2019-06-27T09:11:40.788Z,3.80
2019-06-27T09:14:06.849Z,3.47
2019-06-27T09:16:32.853Z,3.40
2019-06-27T09:18:58.937Z,3.62
2019-06-27T09:21:25.117Z,3.45
2019-06-27T09:23:51.357Z,3.42
2019-06-27T09:26:17.576Z,3.35
2019-06-27T09:28:43.639Z,3.22
2019-06-27T09:31:09.651Z,3.40
2019-06-27T09:33:35.702Z,3.17
2019-06-27T09:36:02.160Z,3.35
2019-06-27T09:38:28.209Z,3.27
2019-06-27T09:40:54.370Z,3.08
2019-06-27T09:43:20.579Z,3.00
2019-06-27T09:45:46.624Z,3.20
2019-06-27T09:48:12.734Z,2.92
2019-06-27T09:50:38.831Z,2.80
2019-06-27T09:53:04.949Z,2.58
2019-06-27T09:55:31.011Z,2.77
2019-06-27T09:57:57.139Z,3.08
2019-06-27T10:00:23.718Z,2.98
2019-06-27T10:02:49.841Z,2.90
2019-06-27T10:05:16.093Z,2.72
2019-06-27T10:07:42.230Z,2.95
2019-06-27T10:10:08.937Z,2.52
2019-06-27T10:12:42.371Z,3.08
2019-06-27T10:15:06.877Z,3.05
2019-06-27T10:17:32.893Z,2.58
2019-06-27T10:19:59.063Z,2.80
2019-06-27T10:22:25.189Z,2.70
2019-06-27T10:24:51.236Z,2.65
2019-06-27T10:27:17.590Z,2.60
2019-06-27T10:29:43.639Z,2.70
2019-06-27T10:32:09.646Z,2.55
2019-06-27T10:34:35.691Z,2.20
2019-06-27T10:37:01.713Z,2.00
2019-06-27T10:39:27.757Z,2.10
2019-06-27T10:41:54.214Z,1.70
2019-06-27T10:44:20.532Z,1.80
2019-06-27T10:46:46.566Z,1.80
2019-06-27T10:49:12.566Z,1.77
2019-06-27T10:51:38.889Z,1.50
2019-06-27T10:54:04.900Z,1.80
2019-06-27T10:56:31.047Z,1.40
2019-06-27T10:58:57.087Z,1.65
2019-06-27T11:01:23.101Z,1.60
2019-06-27T11:03:49.174Z,1.80
2019-06-27T11:06:15.563Z,1.70
2019-06-27T11:08:42.767Z,1.90
2019-06-27T11:11:08.781Z,1.77
2019-06-27T11:13:34.900Z,1.90
2019-06-27T11:16:01.333Z,1.60
2019-06-27T11:18:27.358Z,2.00
2019-06-27T11:20:53.373Z,1.70
2019-06-27T11:23:19.513Z,1.80
2019-06-27T11:25:45.559Z,1.82
2019-06-27T11:28:11.598Z,1.82
2019-06-27T11:30:37.804Z,1.50
2019-06-27T11:33:04.022Z,1.70
2019-06-27T11:35:30.406Z,1.80
2019-06-27T11:37:56.413Z,1.70
2019-06-27T11:40:22.970Z,1.35
2019-06-27T11:42:49.790Z,1.37
2019-06-27T11:45:16.113Z,1.50
2019-06-27T11:47:42.131Z,1.40
2019-06-27T11:50:08.494Z,1.50
2019-06-27T11:52:34.533Z,1.70
2019-06-27T11:55:00.622Z,1.50
2019-06-27T11:57:26.841Z,1.70
2019-06-27T11:59:52.885Z,1.52
2019-06-27T12:02:18.901Z,1.60
2019-06-27T12:04:45.006Z,1.32
2019-06-27T12:07:11.071Z,1.50
2019-06-27T12:09:37.569Z,1.40
2019-06-27T12:12:04.702Z,1.70
2019-06-27T12:14:30.943Z,1.30
2019-06-27T12:16:57.272Z,1.22
2019-06-27T12:19:23.332Z,1.30
2019-06-27T12:21:49.425Z,1.30
2019-06-27T12:24:15.570Z,1.40
2019-06-27T12:26:41.580Z,1.37
2019-06-27T12:29:07.695Z,1.47
2019-06-27T12:31:33.812Z,1.32
2019-06-27T12:34:06.761Z,1.35
2019-06-27T12:36:27.895Z,1.07
2019-06-27T12:38:54.420Z,1.47
2019-06-27T12:41:20.549Z,1.40
2019-06-27T12:43:46.676Z,1.20
2019-06-27T12:46:12.950Z,1.30
2019-06-27T12:48:39.258Z,1.10
2019-06-27T12:51:05.623Z,1.27
2019-06-27T12:53:31.690Z,1.60
2019-06-27T12:55:57.940Z,1.32
2019-06-27T12:58:24.173Z,1.40
2019-06-27T13:00:50.188Z,1.25
2019-06-27T13:03:16.515Z,1.10
2019-06-27T13:05:42.693Z,1.10
2019-06-27T13:08:08.749Z,1.50
2019-06-27T13:10:36.186Z,1.20
2019-06-27T13:13:04.600Z,1.22
2019-06-27T13:15:32.661Z,1.30
2019-06-27T13:17:58.789Z,1.22
2019-06-27T13:20:25.504Z,1.32
2019-06-27T13:22:51.791Z,1.10
2019-06-27T13:25:17.951Z,1.37
2019-06-27T13:27:44.108Z,1.32
2019-06-27T13:30:10.457Z,1.20
2019-06-27T13:32:36.507Z,1.45
2019-06-27T13:35:04.218Z,1.22
2019-06-27T13:37:30.315Z,1.40
2019-06-27T13:39:56.467Z,1.40
2019-06-27T13:42:22.721Z,1.17
2019-06-27T13:44:48.958Z,1.32
2019-06-27T13:47:20.175Z,1.30
2019-06-27T13:49:45.551Z,1.40
2019-06-27T13:52:13.808Z,1.27
2019-06-27T13:54:39.934Z,1.40
2019-06-27T13:57:06.026Z,1.50
2019-06-27T13:59:33.140Z,1.47
2019-06-27T14:01:59.399Z,1.60
2019-06-27T14:04:25.490Z,1.57
2019-06-27T14:06:51.693Z,1.52
2019-06-27T14:09:23.348Z,1.57
2019-06-27T14:11:45.788Z,1.22
2019-06-27T14:14:12.075Z,1.45
2019-06-27T14:16:38.151Z,1.30
2019-06-27T14:19:04.656Z,1.35
2019-06-27T14:21:30.759Z,1.40
2019-06-27T14:23:56.827Z,1.60
2019-06-27T14:26:22.862Z,1.35
2019-06-27T14:28:48.946Z,1.15
2019-06-27T14:31:15.537Z,1.35
2019-06-27T14:33:41.609Z,1.45
2019-06-27T14:36:10.530Z,1.40
2019-06-27T14:38:39.493Z,1.50
2019-06-27T14:41:06.076Z,1.22
2019-06-27T14:43:32.099Z,1.25
2019-06-27T14:45:58.141Z,1.62
2019-06-27T14:48:24.185Z,1.30
2019-06-27T14:50:50.200Z,1.50
2019-06-27T14:53:16.241Z,1.60
2019-06-27T14:55:42.291Z,1.70
2019-06-27T14:58:09.508Z,1.50
2019-06-27T15:00:35.736Z,1.50
2019-06-27T15:03:01.965Z,1.62
2019-06-27T15:05:32.879Z,1.45
2019-06-27T15:07:56.037Z,1.70
2019-06-27T15:10:22.580Z,1.50
2019-06-27T15:12:56.855Z,1.52
2019-06-27T15:15:17.169Z,1.52
2019-06-27T15:17:43.314Z,1.60
2019-06-27T15:20:10.183Z,1.42
2019-06-27T15:22:37.699Z,1.52
2019-06-27T15:25:05.726Z,1.75
2019-06-27T15:27:31.909Z,1.42
2019-06-27T15:29:57.920Z,1.60
2019-06-27T15:32:24.017Z,1.50
2019-06-27T15:34:50.036Z,1.70
2019-06-27T15:37:16.290Z,1.60
2019-06-27T15:39:42.298Z,1.55
2019-06-27T15:42:08.340Z,1.70
2019-06-27T15:44:34.348Z,2.67
2019-06-27T15:47:00.416Z,1.62
2019-06-27T15:49:30.026Z,1.70
2019-06-27T15:51:54.355Z,1.60
2019-06-27T15:54:22.782Z,1.70
2019-06-27T15:56:48.970Z,1.77
2019-06-27T15:59:15.124Z,1.87
2019-06-27T16:01:41.241Z,1.60
2019-06-27T16:04:07.483Z,1.50
2019-06-27T16:06:33.512Z,1.50
2019-06-27T16:08:59.568Z,1.30
2019-06-27T16:11:25.714Z,1.55
2019-06-27T16:13:51.806Z,1.42
2019-06-27T16:16:17.926Z,1.50
2019-06-27T16:18:43.989Z,1.62
2019-06-27T16:21:10.026Z,1.60
2019-06-27T16:23:36.072Z,1.60
2019-06-27T16:26:02.121Z,1.40
2019-06-27T16:28:29.264Z,1.50
2019-06-27T16:30:55.481Z,1.50
2019-06-27T16:33:21.534Z,1.67
2019-06-27T16:35:47.614Z,1.55
2019-06-27T16:38:13.666Z,1.70
2019-06-27T16:40:39.830Z,2.47
2019-06-27T16:43:06.095Z,1.40
2019-06-27T16:45:32.335Z,1.50
2019-06-27T16:47:58.543Z,1.77
2019-06-27T16:50:24.660Z,1.85
2019-06-27T16:52:50.697Z,1.50
2019-06-27T16:55:17.115Z,1.70
2019-06-27T16:57:43.165Z,1.90
2019-06-27T17:00:09.777Z,1.82
2019-06-27T17:02:36.039Z,1.80
2019-06-27T17:05:04.296Z,1.60
2019-06-27T17:07:30.834Z,1.67
2019-06-27T17:09:56.871Z,1.87
2019-06-27T17:12:22.864Z,1.70
2019-06-27T17:14:48.922Z,1.67
2019-06-27T17:17:14.979Z,1.70
2019-06-27T17:19:41.277Z,1.65
2019-06-27T17:22:07.430Z,1.52
2019-06-27T17:24:33.435Z,1.52
2019-06-27T17:26:59.627Z,1.50
2019-06-27T17:29:25.983Z,1.60
2019-06-27T17:31:52.024Z,1.60
2019-06-27T17:34:18.203Z,1.70
2019-06-27T17:36:57.049Z,1.70
2019-06-27T17:39:12.623Z,1.65
2019-06-27T17:41:38.786Z,1.80
2019-06-27T17:44:04.911Z,1.70
2019-06-27T17:46:30.961Z,1.77
2019-06-27T17:48:57.345Z,1.80
2019-06-27T17:51:23.746Z,1.67
2019-06-27T17:53:49.770Z,1.70
2019-06-27T17:56:15.983Z,1.80
2019-06-27T17:58:42.492Z,1.62
2019-06-27T18:01:08.515Z,1.70
2019-06-27T18:03:34.575Z,1.65
2019-06-27T18:06:00.625Z,2.22
2019-06-27T18:08:26.770Z,1.82
2019-06-27T18:10:53.029Z,1.70
2019-06-27T18:13:19.056Z,1.90
2019-06-27T18:15:45.079Z,1.57
2019-06-27T18:18:11.131Z,1.70
2019-06-27T18:20:37.685Z,1.65
2019-06-27T18:23:04.808Z,1.77
2019-06-27T18:25:30.905Z,1.85
2019-06-27T18:27:56.959Z,1.65
2019-06-27T18:30:23.129Z,1.80
2019-06-27T18:32:49.150Z,1.95
2019-06-27T18:35:15.536Z,2.02
2019-06-27T18:37:41.598Z,1.80
2019-06-27T18:40:08.059Z,1.87
2019-06-27T18:42:34.149Z,2.00
2019-06-27T18:45:00.570Z,1.98
2019-06-27T18:47:26.879Z,2.15
2019-06-27T18:49:52.961Z,1.80
2019-06-27T18:52:19.379Z,2.30
2019-06-27T18:54:45.457Z,2.10
2019-06-27T18:57:11.585Z,2.25
2019-06-27T18:59:37.718Z,2.12
2019-06-27T19:02:04.110Z,2.50
2019-06-27T19:04:30.137Z,2.47
2019-06-27T19:06:56.193Z,2.37
2019-06-27T19:09:22.360Z,2.58
2019-06-27T19:11:48.766Z,2.60
2019-06-27T19:14:15.027Z,2.47
2019-06-27T19:16:41.333Z,2.90
2019-06-27T19:19:07.539Z,2.92
2019-06-27T19:21:33.586Z,3.02
2019-06-27T19:23:59.668Z,2.60
2019-06-27T19:26:25.770Z,2.87
2019-06-27T19:28:52.033Z,2.33
2019-06-27T19:31:18.096Z,2.90
2019-06-27T19:33:44.163Z,2.90
2019-06-27T19:36:10.287Z,3.00
2019-06-27T19:38:36.562Z,2.83
2019-06-27T19:41:03.756Z,2.80
2019-06-27T19:43:30.023Z,3.12
2019-06-27T19:45:56.355Z,3.05
2019-06-27T19:48:22.587Z,3.25
2019-06-27T19:50:48.690Z,3.47
2019-06-27T19:53:16.007Z,3.27
2019-06-27T19:55:42.504Z,3.30
2019-06-27T19:58:08.667Z,3.40
2019-06-27T20:00:34.734Z,3.20
2019-06-27T20:03:01.115Z,3.58
2019-06-27T20:05:27.182Z,3.40
2019-06-27T20:07:53.255Z,3.83
2019-06-27T20:10:19.577Z,3.80
2019-06-27T20:12:45.749Z,3.10
2019-06-27T20:15:12.341Z,3.17
2019-06-27T20:17:39.522Z,3.70
2019-06-27T20:20:05.873Z,3.63
2019-06-27T20:22:31.958Z,3.75
2019-06-27T20:24:58.084Z,3.80
2019-06-27T20:27:24.172Z,3.67
2019-06-27T20:29:50.256Z,3.52
2019-06-27T20:32:16.296Z,3.80
2019-06-27T20:34:42.309Z,4.17
2019-06-27T20:37:08.420Z,4.20
2019-06-27T20:39:34.465Z,4.15
2019-06-27T20:42:00.482Z,3.70
2019-06-27T20:44:26.522Z,3.93
2019-06-27T20:46:52.691Z,3.83
2019-06-27T20:49:18.892Z,3.73
2019-06-27T20:51:44.904Z,3.80
2019-06-27T20:54:12.347Z,3.77
2019-06-27T20:56:38.715Z,3.73
2019-06-27T20:59:04.768Z,3.57
2019-06-27T21:01:31.771Z,3.70
2019-06-27T21:03:58.240Z,3.50
2019-06-27T21:06:25.573Z,3.30
2019-06-27T21:08:52.148Z,3.43
2019-06-27T21:11:18.238Z,3.33
2019-06-27T21:13:45.319Z,3.30
2019-06-27T21:16:11.482Z,3.10
2019-06-27T21:18:37.550Z,3.10
2019-06-27T21:21:03.908Z,3.80
2019-06-27T21:23:30.024Z,4.10
2019-06-27T21:25:56.095Z,3.50
2019-06-27T21:28:22.250Z,2.90
2019-06-27T21:30:48.393Z,3.00
2019-06-27T21:33:14.671Z,2.77
2019-06-27T21:35:40.679Z,3.10
2019-06-27T21:38:06.725Z,2.80
2019-06-27T21:40:32.873Z,2.60
2019-06-27T21:42:58.917Z,2.80
2019-06-27T21:45:25.021Z,2.70
2019-06-27T21:47:51.069Z,2.60
2019-06-27T21:50:17.437Z,2.90
2019-06-27T21:52:43.678Z,2.77
2019-06-27T21:55:10.085Z,2.90
2019-06-27T21:57:36.226Z,2.60
2019-06-27T22:00:05.756Z,2.63
2019-06-27T22:02:33.707Z,2.80
2019-06-27T22:04:59.804Z,2.60
2019-06-27T22:07:25.863Z,2.40
2019-06-27T22:09:52.269Z,2.80
2019-06-27T22:12:18.737Z,2.47
2019-06-27T22:14:45.015Z,2.93
2019-06-27T22:17:14.978Z,2.73
2019-06-27T22:19:41.261Z,2.43
2019-06-27T22:22:07.452Z,2.53
2019-06-27T22:24:33.590Z,2.70
2019-06-27T22:27:00.734Z,2.43
2019-06-27T22:29:27.002Z,2.50
2019-06-27T22:31:53.179Z,2.87
2019-06-27T22:34:19.595Z,2.67
2019-06-27T22:36:46.029Z,2.90
2019-06-27T22:39:12.365Z,2.80
2019-06-27T22:41:38.380Z,2.50
2019-06-27T22:44:04.763Z,2.47
2019-06-27T22:46:30.787Z,2.60
2019-06-27T22:48:58.763Z,2.60
2019-06-27T22:51:24.862Z,2.40
2019-06-27T22:53:50.880Z,2.37
2019-06-27T22:56:17.037Z,2.33
2019-06-27T22:58:43.047Z,2.47
2019-06-27T23:01:09.098Z,2.30
2019-06-27T23:03:35.120Z,2.57
2019-06-27T23:06:01.355Z,2.80
2019-06-27T23:08:27.557Z,2.27
2019-06-27T23:10:53.596Z,2.60
2019-06-27T23:13:19.973Z,2.70
2019-06-27T23:15:46.027Z,2.63
2019-06-27T23:18:12.221Z,2.90
2019-06-27T23:20:38.377Z,2.47
2019-06-27T23:23:04.530Z,2.77
2019-06-27T23:25:30.541Z,2.50
2019-06-27T23:27:56.611Z,2.30
2019-06-27T23:30:22.703Z,2.50
2019-06-27T23:32:48.862Z,2.70
2019-06-27T23:35:15.084Z,2.50
2019-06-27T23:37:41.501Z,2.87
2019-06-27T23:40:13.841Z,2.67
2019-06-27T23:42:36.486Z,2.87
2019-06-27T23:45:03.850Z,2.20
2019-06-27T23:47:30.170Z,2.43
2019-06-27T23:49:56.187Z,2.07
2019-06-27T23:52:22.238Z,2.37
2019-06-27T23:54:48.377Z,2.30
2019-06-27T23:57:14.410Z,2.30
2019-06-27T23:59:40.432Z,2.20
